Time;durP1;ratioP1;P1;durP2;ratioP2;P2;SDS_P1;SDS_P2;PMS_P1;PMS_P2;Temp;Humidity;BMP_temperature;BMP_pressure;BME280_temperature;BME280_humidity;BME280_pressure;Samples;Min_cycle;Max_cycle;Signal;HPM_P1;HPM_P2
2023/04/25 00:00:45;;;;;;;7.10;3.10;;;7.00;50.50;;;;;;5037746;28;46325;-72
2023/04/25 00:03:10;;;;;;;5.87;2.90;;;7.00;50.80;;;;;;5039459;28;46630;-72
2023/04/25 00:05:36;;;;;;;7.77;2.90;;;7.00;50.70;;;;;;5035165;28;46714;-72
2023/04/25 00:08:03;;;;;;;5.13;2.77;;;7.00;50.50;;;;;;5039314;28;46325;-72
2023/04/25 00:10:29;;;;;;;4.40;3.20;;;7.00;50.30;;;;;;5038367;28;46455;-72
2023/04/25 00:12:54;;;;;;;5.83;3.10;;;7.00;50.70;;;;;;5039135;28;46353;-72
2023/04/25 00:15:20;;;;;;;5.17;3.50;;;6.90;50.80;;;;;;5036668;28;46973;-72
2023/04/25 00:17:46;;;;;;;4.83;2.80;;;6.80;51.30;;;;;;5036662;28;46511;-71
2023/04/25 00:20:12;;;;;;;6.10;2.70;;;6.70;51.70;;;;;;5036868;28;46456;-72
2023/04/25 00:22:37;;;;;;;4.77;2.87;;;6.60;52.20;;;;;;5044717;28;46471;-72
2023/04/25 00:25:07;;;;;;;9.00;3.37;;;6.40;52.60;;;;;;5037712;28;47287;-72
2023/04/25 00:27:32;;;;;;;7.23;2.73;;;6.30;53.00;;;;;;5038068;28;46282;-72
2023/04/25 00:29:58;;;;;;;6.67;2.93;;;6.20;53.30;;;;;;5037711;28;46338;-72
2023/04/25 00:32:24;;;;;;;4.00;2.70;;;6.10;53.60;;;;;;5039268;28;46405;-72
2023/04/25 00:34:49;;;;;;;10.33;3.07;;;6.00;53.90;;;;;;5035696;28;46654;-72
2023/04/25 00:37:15;;;;;;;4.60;3.00;;;5.90;54.10;;;;;;5037809;28;46447;-73
2023/04/25 00:39:41;;;;;;;4.83;3.10;;;5.80;54.20;;;;;;5041047;28;46428;-72
2023/04/25 00:42:07;;;;;;;8.57;3.60;;;5.70;54.40;;;;;;5040101;28;46393;-71
2023/04/25 00:44:34;;;;;;;3.90;2.57;;;5.60;54.60;;;;;;5039004;28;46571;-70
2023/04/25 00:47:02;;;;;;;4.20;2.80;;;5.50;54.70;;;;;;5040936;28;46336;-70
2023/04/25 00:49:27;;;;;;;3.60;2.60;;;5.40;54.90;;;;;;5041194;28;46266;-71
2023/04/25 00:51:53;;;;;;;6.87;2.93;;;5.40;56.10;;;;;;5040460;28;46468;-71
2023/04/25 00:54:19;;;;;;;5.53;3.10;;;5.30;55.00;;;;;;5041386;28;46448;-70
2023/04/25 00:56:45;;;;;;;5.67;3.30;;;5.30;55.20;;;;;;5041323;28;46511;-70
2023/04/25 00:59:11;;;;;;;6.10;2.93;;;5.20;55.10;;;;;;5038575;28;46710;-71
2023/04/25 01:01:38;;;;;;;7.50;2.90;;;5.20;55.00;;;;;;5039583;28;46442;-71
2023/04/25 01:04:04;;;;;;;5.60;3.40;;;5.30;55.00;;;;;;5038382;28;46208;-72
2023/04/25 01:06:31;;;;;;;5.70;3.40;;;5.30;54.70;;;;;;5039234;28;46465;-70
2023/04/25 01:08:58;;;;;;;6.03;3.30;;;5.40;54.60;;;;;;5040525;28;46805;-71
2023/04/25 01:11:24;;;;;;;6.83;3.80;;;5.50;54.40;;;;;;5040991;28;46365;-71
2023/04/25 01:13:50;;;;;;;5.80;3.70;;;5.60;54.20;;;;;;5038780;28;46668;-71
2023/04/25 01:16:15;;;;;;;4.57;3.30;;;5.60;54.00;;;;;;5039445;28;46507;-71
2023/04/25 01:18:42;;;;;;;6.40;3.83;;;5.70;53.80;;;;;;5038768;28;46366;-71
2023/04/25 01:21:15;;;;;;;6.50;3.60;;;5.70;53.90;;;;;;5033942;28;46400;-71
2023/04/25 01:23:41;;;;;;;5.80;3.50;;;5.60;54.00;;;;;;5037614;28;46464;-70
2023/04/25 01:26:11;;;;;;;7.23;3.40;;;5.70;54.20;;;;;;5043797;28;47201;-70
2023/04/25 01:28:40;;;;;;;4.27;2.90;;;5.70;53.80;;;;;;5040682;28;45843;-71
2023/04/25 01:31:06;;;;;;;5.27;3.43;;;5.80;53.60;;;;;;5037212;28;45927;-71
2023/04/25 01:33:32;;;;;;;6.90;3.60;;;5.90;53.40;;;;;;5038585;28;46508;-71
2023/04/25 01:35:58;;;;;;;7.93;3.10;;;5.90;53.30;;;;;;5039828;28;45711;-71
2023/04/25 01:38:23;;;;;;;8.37;4.03;;;5.90;53.30;;;;;;5039076;28;46583;-71
2023/04/25 01:40:51;;;;;;;5.47;3.73;;;6.00;53.00;;;;;;5040865;28;46393;-71
2023/04/25 01:43:17;;;;;;;5.20;3.20;;;6.10;52.80;;;;;;5038751;28;46310;-71
2023/04/25 01:45:42;;;;;;;5.93;3.40;;;6.00;52.80;;;;;;5039683;28;46405;-71
2023/04/25 01:48:09;;;;;;;4.60;3.33;;;6.10;53.50;;;;;;5037386;28;46344;-71
2023/04/25 01:50:35;;;;;;;6.37;3.70;;;6.10;53.00;;;;;;5039137;28;46459;-71
2023/04/25 01:53:01;;;;;;;5.33;3.47;;;6.10;53.10;;;;;;5037496;28;46950;-71
2023/04/25 01:55:27;;;;;;;5.60;3.20;;;6.20;53.00;;;;;;5040003;28;46431;-71
2023/04/25 01:57:53;;;;;;;4.67;3.23;;;6.30;52.70;;;;;;5037178;28;46370;-71
2023/04/25 02:00:19;;;;;;;6.80;3.30;;;6.40;52.60;;;;;;5037470;28;46505;-71
2023/04/25 02:02:44;;;;;;;6.50;3.17;;;6.50;52.30;;;;;;5038687;28;46417;-70
2023/04/25 02:05:10;;;;;;;6.27;3.00;;;6.60;52.00;;;;;;5039423;28;46376;-71
2023/04/25 02:07:36;;;;;;;4.10;2.83;;;6.70;51.80;;;;;;5039915;28;46375;-71
2023/04/25 02:10:01;;;;;;;7.20;3.37;;;6.80;51.70;;;;;;5040901;28;46362;-72
2023/04/25 02:12:28;;;;;;;5.90;3.60;;;6.80;51.80;;;;;;5037543;28;46459;-70
2023/04/25 02:14:54;;;;;;;5.27;3.07;;;6.90;51.90;;;;;;5039231;28;46394;-71
2023/04/25 02:17:21;;;;;;;4.80;3.23;;;6.90;51.90;;;;;;5035185;28;46459;-71
2023/04/25 02:19:46;;;;;;;5.37;3.50;;;7.00;51.80;;;;;;5039126;28;46505;-71
2023/04/25 02:22:12;;;;;;;9.37;3.80;;;7.10;51.90;;;;;;5034855;28;46673;-71
2023/04/25 02:24:38;;;;;;;7.53;3.67;;;7.20;52.00;;;;;;5038252;28;46409;-71
2023/04/25 02:27:04;;;;;;;10.13;2.80;;;7.20;52.10;;;;;;5037907;28;46231;-71
2023/04/25 02:29:29;;;;;;;4.43;2.60;;;7.40;52.30;;;;;;5035105;28;46350;-71
2023/04/25 02:31:55;;;;;;;5.30;2.47;;;7.40;52.40;;;;;;5037935;28;46442;-71
2023/04/25 02:34:21;;;;;;;4.33;2.60;;;7.40;52.70;;;;;;5037867;28;45751;-71
2023/04/25 02:36:50;;;;;;;7.60;2.70;;;7.40;52.80;;;;;;5036801;28;46079;-71
2023/04/25 02:39:16;;;;;;;4.53;2.20;;;7.40;52.90;;;;;;5038126;28;46456;-71
2023/04/25 02:41:42;;;;;;;7.00;2.30;;;7.40;53.00;;;;;;5037354;28;46616;-71
2023/04/25 02:44:07;;;;;;;3.90;1.80;;;7.40;52.90;;;;;;5037705;28;46798;-71
2023/04/25 02:46:33;;;;;;;7.60;2.40;;;7.50;52.90;;;;;;5039324;28;46376;-71
2023/04/25 02:48:58;;;;;;;5.90;2.53;;;7.40;52.70;;;;;;5040154;28;46381;-71
2023/04/25 02:51:24;;;;;;;7.47;2.30;;;7.40;53.10;;;;;;5037946;28;46432;-71
2023/04/25 02:53:50;;;;;;;4.00;2.30;;;7.30;53.00;;;;;;5038161;28;45830;-71
2023/04/25 02:56:15;;;;;;;6.07;2.10;;;7.30;53.30;;;;;;5037713;28;46343;-71
2023/04/25 02:58:41;;;;;;;6.27;2.60;;;7.20;53.30;;;;;;5039676;28;46630;-71
2023/04/25 03:01:06;;;;;;;4.10;2.10;;;7.10;53.70;;;;;;5037611;28;47187;-71
2023/04/25 03:03:32;;;;;;;3.53;1.97;;;7.20;53.60;;;;;;5039254;28;46348;-71
2023/04/25 03:05:58;;;;;;;5.53;2.00;;;7.20;53.60;;;;;;5040233;28;46528;-70
2023/04/25 03:08:25;;;;;;;4.67;2.43;;;7.10;53.60;;;;;;5034706;28;46659;-72
2023/04/25 03:10:51;;;;;;;4.03;1.97;;;7.10;53.60;;;;;;5038249;28;46393;-71
2023/04/25 03:13:17;;;;;;;4.10;2.00;;;7.10;53.40;;;;;;5036694;28;45838;-71
2023/04/25 03:15:43;;;;;;;4.40;1.97;;;7.20;53.30;;;;;;5038965;28;45893;-71
2023/04/25 03:18:09;;;;;;;6.20;2.40;;;7.10;53.30;;;;;;5039372;28;45840;-71
2023/04/25 03:20:35;;;;;;;6.63;1.90;;;7.10;53.50;;;;;;5038743;28;46512;-72
2023/04/25 03:23:00;;;;;;;2.70;1.80;;;7.10;53.40;;;;;;5035822;28;46258;-71
2023/04/25 03:25:26;;;;;;;4.93;1.50;;;7.10;53.30;;;;;;5038154;28;46354;-70
2023/04/25 03:27:51;;;;;;;6.13;2.10;;;7.20;53.20;;;;;;5034527;28;46521;-70
2023/04/25 03:30:17;;;;;;;2.07;1.37;;;7.10;53.00;;;;;;5038991;28;47162;-71
2023/04/25 03:32:43;;;;;;;4.83;1.93;;;7.20;53.00;;;;;;5040963;28;46357;-71
2023/04/25 03:35:08;;;;;;;6.73;2.40;;;7.10;53.00;;;;;;5042432;28;45928;-71
2023/04/25 03:37:34;;;;;;;2.73;1.87;;;7.10;53.30;;;;;;5040606;28;46797;-71
2023/04/25 03:40:00;;;;;;;4.03;1.90;;;7.00;53.20;;;;;;5036556;28;46276;-71
2023/04/25 03:42:25;;;;;;;4.77;1.73;;;7.00;53.30;;;;;;5034815;28;46481;-70
2023/04/25 03:44:51;;;;;;;4.80;1.97;;;7.00;53.20;;;;;;5037996;28;46471;-71
2023/04/25 03:47:17;;;;;;;4.17;2.10;;;7.00;53.80;;;;;;5037052;28;46428;-71
2023/04/25 03:49:42;;;;;;;3.73;1.73;;;6.90;53.70;;;;;;5038623;28;46945;-71
2023/04/25 03:52:08;;;;;;;6.30;2.33;;;6.80;53.90;;;;;;5036840;28;46368;-71
2023/04/25 03:54:34;;;;;;;12.50;2.90;;;6.80;54.10;;;;;;5040164;28;46390;-71
2023/04/25 03:57:00;;;;;;;5.67;2.40;;;6.70;54.20;;;;;;5037709;28;45818;-71
2023/04/25 03:59:25;;;;;;;4.83;2.23;;;6.80;54.20;;;;;;5037466;28;45989;-71
2023/04/25 04:01:52;;;;;;;6.23;2.30;;;6.80;54.20;;;;;;5037774;28;46264;-71
2023/04/25 04:04:17;;;;;;;3.70;2.00;;;6.80;54.10;;;;;;5038320;28;46389;-70
2023/04/25 04:06:43;;;;;;;4.30;2.03;;;6.80;54.00;;;;;;5038371;28;46399;-70
2023/04/25 04:09:10;;;;;;;5.77;2.63;;;6.90;53.80;;;;;;5039219;28;47241;-70
2023/04/25 04:11:38;;;;;;;6.97;2.10;;;6.90;53.80;;;;;;5038685;28;46490;-70
2023/04/25 04:14:05;;;;;;;8.97;2.63;;;7.00;53.70;;;;;;5038941;28;46614;-70
2023/04/25 04:16:31;;;;;;;5.10;2.40;;;7.10;53.40;;;;;;5039246;28;46361;-70
2023/04/25 04:18:56;;;;;;;5.10;2.60;;;7.10;53.50;;;;;;5042799;28;47316;-72
2023/04/25 04:21:22;;;;;;;3.43;2.27;;;7.10;53.50;;;;;;5039561;28;46341;-68
2023/04/25 04:23:47;;;;;;;4.87;2.47;;;7.20;53.60;;;;;;5041409;28;46419;-69
2023/04/25 04:26:16;;;;;;;5.90;2.50;;;7.10;53.80;;;;;;5041052;28;46971;-69
2023/04/25 04:28:42;;;;;;;4.93;2.50;;;7.10;53.90;;;;;;5038638;28;46429;-69
2023/04/25 04:31:09;;;;;;;4.20;2.50;;;7.20;54.00;;;;;;5040378;28;46294;-67
2023/04/25 04:33:34;;;;;;;4.90;2.33;;;7.10;53.90;;;;;;5040224;28;46365;-67
2023/04/25 04:36:02;;;;;;;11.33;3.13;;;7.10;54.00;;;;;;5041373;28;46583;-68
2023/04/25 04:38:28;;;;;;;5.03;2.83;;;7.10;55.20;;;;;;5038155;28;46503;-68
2023/04/25 04:40:54;;;;;;;6.63;2.80;;;7.20;54.40;;;;;;5039153;28;46585;-68
2023/04/25 04:43:20;;;;;;;4.37;2.60;;;7.20;54.50;;;;;;5038352;28;46341;-68
2023/04/25 04:45:45;;;;;;;5.73;3.17;;;7.20;54.30;;;;;;5040076;28;46584;-68
2023/04/25 04:48:13;;;;;;;5.70;2.90;;;7.40;54.10;;;;;;5041004;28;46027;-68
2023/04/25 04:50:40;;;;;;;3.60;2.23;;;7.40;53.90;;;;;;5038340;28;46354;-67
2023/04/25 04:53:05;;;;;;;8.70;3.23;;;7.50;53.90;;;;;;5042585;28;46363;-68
2023/04/25 04:55:31;;;;;;;5.50;3.03;;;7.50;53.90;;;;;;5039922;28;46836;-68
2023/04/25 04:57:57;;;;;;;6.03;3.03;;;7.50;53.70;;;;;;5041582;28;46390;-68
2023/04/25 05:00:22;;;;;;;8.23;3.37;;;7.50;53.80;;;;;;5039990;28;46368;-68
2023/04/25 05:02:48;;;;;;;6.40;3.30;;;7.60;53.80;;;;;;5040592;28;46310;-69
2023/04/25 05:05:14;;;;;;;5.17;3.00;;;7.60;53.80;;;;;;5041102;28;46885;-69
2023/04/25 05:07:39;;;;;;;8.03;3.53;;;7.60;53.90;;;;;;5038707;28;46444;-69
2023/04/25 05:10:05;;;;;;;6.33;3.20;;;7.50;54.30;;;;;;5040513;28;46464;-69
2023/04/25 05:12:31;;;;;;;6.53;3.20;;;7.60;54.30;;;;;;5037321;28;46637;-69
2023/04/25 05:14:57;;;;;;;6.47;3.50;;;7.60;54.30;;;;;;5039983;28;46571;-68
2023/04/25 05:17:22;;;;;;;5.00;3.33;;;7.60;54.60;;;;;;5040115;28;46123;-69
2023/04/25 05:19:48;;;;;;;6.90;2.93;;;7.50;54.80;;;;;;5039718;28;46444;-69
2023/04/25 05:22:14;;;;;;;4.17;2.97;;;7.50;55.00;;;;;;5041458;28;46375;-69
2023/04/25 05:24:39;;;;;;;4.67;2.90;;;7.50;54.80;;;;;;5041853;28;46438;-69
2023/04/25 05:27:05;;;;;;;5.93;2.80;;;7.60;54.80;;;;;;5039310;28;46453;-68
2023/04/25 05:29:31;;;;;;;4.20;3.00;;;7.70;54.50;;;;;;5041619;28;46365;-68
2023/04/25 05:31:56;;;;;;;4.73;2.90;;;7.80;54.50;;;;;;5040532;28;46450;-69
2023/04/25 05:34:22;;;;;;;6.97;3.10;;;7.80;54.30;;;;;;5041234;28;46436;-68
2023/04/25 05:36:48;;;;;;;6.73;3.70;;;8.00;53.90;;;;;;5045681;28;46396;-68
2023/04/25 05:39:16;;;;;;;5.43;3.43;;;8.10;53.50;;;;;;5041816;28;46439;-68
2023/04/25 05:41:42;;;;;;;7.27;3.53;;;8.30;53.40;;;;;;5040178;28;46400;-68
2023/04/25 05:44:07;;;;;;;9.87;3.20;;;8.30;53.30;;;;;;5039999;28;45879;-68
2023/04/25 05:46:33;;;;;;;6.83;3.37;;;8.40;53.30;;;;;;5037036;28;46442;-69
2023/04/25 05:48:59;;;;;;;8.60;3.30;;;8.50;53.20;;;;;;5038706;28;45945;-68
2023/04/25 05:51:24;;;;;;;7.57;3.00;;;8.60;53.30;;;;;;5039877;28;46352;-68
2023/04/25 05:53:50;;;;;;;8.40;3.13;;;8.60;53.20;;;;;;5039638;28;45858;-67
2023/04/25 05:56:15;;;;;;;6.07;3.40;;;8.70;53.20;;;;;;5040022;28;46575;-68
2023/04/25 05:58:41;;;;;;;13.30;3.27;;;8.70;53.30;;;;;;5038847;28;46196;-68
2023/04/25 06:01:07;;;;;;;7.57;3.00;;;8.70;53.40;;;;;;5040786;28;46460;-68
2023/04/25 06:03:32;;;;;;;5.70;2.50;;;8.70;53.50;;;;;;5040278;28;46515;-68
2023/04/25 06:05:58;;;;;;;6.90;2.43;;;8.80;53.30;;;;;;5041043;28;46438;-68
2023/04/25 06:08:23;;;;;;;4.97;3.30;;;8.90;53.10;;;;;;5038966;28;46376;-68
2023/04/25 06:10:49;;;;;;;5.53;2.63;;;8.90;53.00;;;;;;5038859;28;46647;-68
2023/04/25 06:13:15;;;;;;;7.23;3.63;;;9.00;53.00;;;;;;5039649;28;46381;-68
2023/04/25 06:15:41;;;;;;;5.10;2.80;;;9.00;53.00;;;;;;5039413;28;46376;-68
2023/04/25 06:18:07;;;;;;;4.40;2.03;;;9.00;53.40;;;;;;5038623;28;46452;-68
2023/04/25 06:20:32;;;;;;;4.20;2.20;;;9.00;53.40;;;;;;5037693;28;46421;-68
2023/04/25 06:22:58;;;;;;;5.10;2.40;;;9.30;53.00;;;;;;5037798;28;46537;-68
2023/04/25 06:25:23;;;;;;;6.00;2.63;;;9.50;52.30;;;;;;5037692;28;46400;-68
2023/04/25 06:27:49;;;;;;;3.97;2.47;;;10.00;51.60;;;;;;5038421;28;46648;-68
2023/04/25 06:30:16;;;;;;;4.00;2.20;;;10.10;51.80;;;;;;5038505;28;46310;-68
2023/04/25 06:32:41;;;;;;;5.33;3.00;;;10.10;51.70;;;;;;5039293;28;46333;-68
2023/04/25 06:35:07;;;;;;;4.90;3.30;;;10.40;51.80;;;;;;5037345;28;46366;-68
2023/04/25 06:37:33;;;;;;;12.10;2.87;;;11.10;50.00;;;;;;5038966;28;45797;-68
2023/04/25 06:39:58;;;;;;;3.07;1.70;;;12.90;41.80;;;;;;5034658;28;46278;-69
2023/04/25 06:42:24;;;;;;;3.93;2.07;;;14.20;35.90;;;;;;5037330;28;46683;-69
2023/04/25 06:44:50;;;;;;;4.03;1.90;;;13.20;38.50;;;;;;5038602;28;46044;-69
2023/04/25 06:47:15;;;;;;;5.57;2.10;;;13.00;39.80;;;;;;5037020;28;46532;-69
2023/04/25 06:49:41;;;;;;;7.87;2.40;;;13.60;37.40;;;;;;5040051;28;45913;-69
2023/04/25 06:52:08;;;;;;;4.20;2.20;;;12.80;40.10;;;;;;5040292;28;46370;-69
2023/04/25 06:54:33;;;;;;;4.10;1.93;;;12.30;42.50;;;;;;5036858;28;46909;-68
2023/04/25 06:57:00;;;;;;;3.33;2.20;;;11.90;42.70;;;;;;5040263;28;45845;-69
2023/04/25 06:59:26;;;;;;;6.60;2.50;;;11.40;42.50;;;;;;5037889;28;46357;-68
2023/04/25 07:01:52;;;;;;;4.80;1.80;;;11.20;43.60;;;;;;5039239;28;46306;-69
2023/04/25 07:04:17;;;;;;;3.37;1.90;;;10.90;44.00;;;;;;5038469;28;47159;-68
2023/04/25 07:06:43;;;;;;;4.03;2.30;;;10.40;45.50;;;;;;5039490;28;46335;-68
2023/04/25 07:09:12;;;;;;;3.47;1.80;;;10.20;46.30;;;;;;5039810;28;46440;-68
2023/04/25 07:11:38;;;;;;;4.93;2.40;;;10.00;48.10;;;;;;5037184;28;46623;-68
2023/04/25 07:14:03;;;;;;;6.03;2.00;;;9.80;47.90;;;;;;5035690;28;46552;-67
2023/04/25 07:16:29;;;;;;;2.70;1.90;;;9.80;48.20;;;;;;5036208;28;46410;-69
2023/04/25 07:18:55;;;;;;;4.97;2.10;;;10.10;47.20;;;;;;5038001;28;46242;-68
2023/04/25 07:21:21;;;;;;;6.20;2.30;;;10.40;47.40;;;;;;5039054;28;46431;-69
2023/04/25 07:23:46;;;;;;;5.10;1.80;;;10.90;47.00;;;;;;5037465;28;46440;-69
2023/04/25 07:26:12;;;;;;;5.80;1.90;;;11.30;45.40;;;;;;5039284;28;46250;-69
2023/04/25 07:28:38;;;;;;;4.40;2.10;;;11.60;44.50;;;;;;5035359;28;45825;-69
2023/04/25 07:31:03;;;;;;;4.47;2.10;;;11.40;43.40;;;;;;5037080;28;46037;-68
2023/04/25 07:33:29;;;;;;;4.13;1.93;;;10.90;43.80;;;;;;5033503;28;46415;-68
2023/04/25 07:35:55;;;;;;;6.50;2.93;;;10.70;44.00;;;;;;5038541;28;46309;-68
2023/04/25 07:38:21;;;;;;;7.37;2.70;;;10.70;44.70;;;;;;5035695;28;46559;-68
2023/04/25 07:40:50;;;;;;;3.90;2.00;;;10.70;44.80;;;;;;5037324;28;46381;-68
2023/04/25 07:43:16;;;;;;;4.10;2.40;;;10.70;45.30;;;;;;5038826;28;47186;-68
2023/04/25 07:45:46;;;;;;;4.13;2.07;;;11.00;45.10;;;;;;5038241;28;46392;-68
2023/04/25 07:48:16;;;;;;;4.73;2.10;;;11.20;44.40;;;;;;5038766;28;46348;-68
2023/04/25 07:50:42;;;;;;;4.97;2.23;;;11.30;44.40;;;;;;5035219;28;46273;-69
2023/04/25 07:53:08;;;;;;;5.57;1.83;;;11.50;44.20;;;;;;5036595;28;46070;-68
2023/04/25 07:55:34;;;;;;;4.83;2.83;;;11.80;44.00;;;;;;5035195;28;46534;-68
2023/04/25 07:57:59;;;;;;;5.30;2.10;;;12.10;43.20;;;;;;5037215;28;46417;-68
2023/04/25 08:00:25;;;;;;;6.93;2.10;;;12.20;41.60;;;;;;5036458;28;46396;-68
2023/04/25 08:02:50;;;;;;;4.73;3.20;;;12.20;41.10;;;;;;5038777;28;45920;-68
2023/04/25 08:05:16;;;;;;;4.83;1.93;;;12.30;41.70;;;;;;5038120;28;46396;-69
2023/04/25 08:07:43;;;;;;;5.60;1.90;;;12.40;41.80;;;;;;5038787;28;46497;-70
2023/04/25 08:10:09;;;;;;;7.03;2.67;;;12.30;41.00;;;;;;5037795;28;45908;-69
2023/04/25 08:12:34;;;;;;;4.10;2.07;;;12.10;40.30;;;;;;5035741;28;47092;-69
2023/04/25 08:15:00;;;;;;;5.13;2.00;;;12.20;40.50;;;;;;5037677;28;46438;-69
2023/04/25 08:17:26;;;;;;;4.90;2.30;;;12.50;40.70;;;;;;5044945;28;46520;-69
2023/04/25 08:19:51;;;;;;;3.20;2.20;;;12.90;39.90;;;;;;5038881;28;46467;-69
2023/04/25 08:22:17;;;;;;;5.07;2.10;;;13.20;38.90;;;;;;5034871;28;47174;-68
2023/04/25 08:24:43;;;;;;;3.70;2.37;;;13.50;36.60;;;;;;5035494;28;46505;-68
2023/04/25 08:27:09;;;;;;;4.90;2.30;;;13.20;36.30;;;;;;5034732;28;46448;-68
2023/04/25 08:29:35;;;;;;;4.00;1.70;;;13.20;35.70;;;;;;5035346;28;45937;-68
2023/04/25 08:32:00;;;;;;;5.27;2.10;;;13.00;35.70;;;;;;5037688;28;47343;-68
2023/04/25 08:34:26;;;;;;;3.90;1.87;;;13.00;35.80;;;;;;5036232;28;46389;-69
2023/04/25 08:36:52;;;;;;;5.57;2.03;;;13.00;36.10;;;;;;5037147;28;45907;-69
2023/04/25 08:39:18;;;;;;;10.53;2.00;;;13.00;36.10;;;;;;5036077;28;46830;-70
2023/04/25 08:41:44;;;;;;;4.57;2.10;;;13.10;34.80;;;;;;5035762;28;47158;-68
2023/04/25 08:44:14;;;;;;;4.83;2.00;;;13.00;33.80;;;;;;5035858;28;46334;-69
2023/04/25 08:46:41;;;;;;;4.23;1.73;;;13.10;33.90;;;;;;5038242;28;46336;-68
2023/04/25 08:49:08;;;;;;;4.20;1.83;;;13.30;32.70;;;;;;5037260;28;46791;-68
2023/04/25 08:51:38;;;;;;;4.00;1.73;;;13.10;32.90;;;;;;5036319;28;46537;-69
2023/04/25 08:54:12;;;;;;;6.17;1.73;;;13.20;33.20;;;;;;5038072;28;46497;-69
2023/04/25 08:56:44;;;;;;;4.50;1.80;;;13.00;30.20;;;;;;5038861;28;46392;-68
2023/04/25 08:59:11;;;;;;;4.00;2.10;;;13.00;31.10;;;;;;5040796;28;45973;-68
2023/04/25 09:01:37;;;;;;;3.37;1.83;;;13.10;30.70;;;;;;5035934;28;47164;-69
2023/04/25 09:04:02;;;;;;;5.57;1.90;;;13.60;30.20;;;;;;5040310;28;45902;-68
2023/04/25 09:06:33;;;;;;;4.07;1.70;;;13.70;28.70;;;;;;5041410;28;46456;-69
2023/04/25 09:09:07;;;;;;;3.93;1.70;;;13.50;28.60;;;;;;5041103;28;45866;-69
2023/04/25 09:11:35;;;;;;;2.77;1.43;;;13.40;29.50;;;;;;5036832;28;46080;-68
2023/04/25 09:14:12;;;;;;;5.03;1.70;;;13.50;29.80;;;;;;5041947;28;46356;-68
2023/04/25 09:16:56;;;;;;;4.17;1.60;;;13.50;29.20;;;;;;5039795;28;46373;-68
2023/04/25 09:19:29;;;;;;;6.90;1.97;;;13.00;29.30;;;;;;5039097;28;45928;-69
2023/04/25 09:21:57;;;;;;;6.87;2.20;;;13.00;31.20;;;;;;5040513;28;46620;-68
2023/04/25 09:24:32;;;;;;;4.83;2.20;;;13.00;30.20;;;;;;5039672;28;46439;-69
2023/04/25 09:26:58;;;;;;;6.73;2.20;;;13.00;30.40;;;;;;5039646;28;46385;-69
2023/04/25 09:29:34;;;;;;;4.63;2.07;;;13.10;30.40;;;;;;5039087;28;46515;-69
2023/04/25 09:32:14;;;;;;;5.17;2.20;;;13.20;30.50;;;;;;5039142;28;47328;-69
2023/04/25 09:34:42;;;;;;;4.33;2.33;;;13.20;30.50;;;;;;5039839;28;46298;-68
2023/04/25 09:37:10;;;;;;;4.43;1.80;;;13.00;30.40;;;;;;5040389;28;46470;-68
2023/04/25 09:39:37;;;;;;;5.50;2.13;;;13.20;30.60;;;;;;5038348;28;46736;-69
2023/04/25 09:42:04;;;;;;;8.97;2.00;;;13.20;30.10;;;;;;5040496;28;46455;-68
2023/04/25 09:44:30;;;;;;;6.00;2.10;;;12.80;30.50;;;;;;5040433;28;46356;-68
2023/04/25 09:46:55;;;;;;;7.23;1.80;;;12.30;31.70;;;;;;5043485;28;46358;-68
2023/04/25 09:49:21;;;;;;;5.03;1.53;;;11.70;33.00;;;;;;5039255;28;46390;-69
2023/04/25 09:52:00;;;;;;;7.80;1.73;;;11.20;34.40;;;;;;5037876;28;46989;-69
2023/04/25 09:54:26;;;;;;;2.20;1.23;;;10.60;36.40;;;;;;5030644;28;46472;-69
2023/04/25 09:56:53;;;;;;;3.00;1.63;;;10.30;37.80;;;;;;5041357;28;46464;-69
2023/04/25 09:59:22;;;;;;;3.17;1.30;;;10.10;38.30;;;;;;5038491;28;45886;-68
2023/04/25 10:01:50;;;;;;;3.47;1.40;;;10.00;37.90;;;;;;5038846;28;46129;-68
2023/04/25 10:04:20;;;;;;;2.90;1.07;;;10.10;37.80;;;;;;5039633;28;46522;-69
2023/04/25 10:06:49;;;;;;;2.13;1.10;;;10.30;37.20;;;;;;5038890;28;46338;-68
2023/04/25 10:09:15;;;;;;;2.77;1.10;;;10.60;36.80;;;;;;5038602;28;46428;-69
2023/04/25 10:11:41;;;;;;;4.00;1.10;;;10.50;36.30;;;;;;5040028;28;47243;-68
2023/04/25 10:14:07;;;;;;;3.30;1.23;;;10.80;36.00;;;;;;5039636;28;46412;-69
2023/04/25 10:16:33;;;;;;;2.43;1.30;;;11.00;35.80;;;;;;5038628;28;46491;-69
2023/04/25 10:18:59;;;;;;;2.83;1.30;;;11.20;35.30;;;;;;5040056;28;46322;-68
2023/04/25 10:21:28;;;;;;;2.07;1.10;;;11.60;34.30;;;;;;5037924;28;46610;-69
2023/04/25 10:23:54;;;;;;;2.80;1.10;;;11.90;33.60;;;;;;5040047;28;46654;-69
2023/04/25 10:26:21;;;;;;;3.80;1.13;;;12.40;32.70;;;;;;5037109;28;46695;-69
2023/04/25 10:29:04;;;;;;;2.80;1.10;;;12.80;32.10;;;;;;5039766;28;46531;-69
2023/04/25 10:31:30;;;;;;;3.30;1.33;;;13.20;31.50;;;;;;5037285;28;47127;-69
2023/04/25 10:33:56;;;;;;;2.90;1.10;;;13.40;31.00;;;;;;5040586;28;46400;-69
2023/04/25 10:36:27;;;;;;;3.10;1.47;;;13.50;30.80;;;;;;5039819;28;46418;-68
2023/04/25 10:38:52;;;;;;;2.80;1.50;;;13.30;31.10;;;;;;5040595;28;46428;-68
2023/04/25 10:41:20;;;;;;;2.90;1.57;;;13.30;31.60;;;;;;5037055;28;45935;-69
2023/04/25 10:43:47;;;;;;;3.67;1.50;;;13.10;30.90;;;;;;5038838;28;45844;-68
2023/04/25 10:46:25;;;;;;;3.83;1.70;;;12.60;31.30;;;;;;5038703;28;45944;-69
2023/04/25 10:48:53;;;;;;;2.67;1.23;;;12.60;31.80;;;;;;5039910;28;46394;-69
2023/04/25 10:51:22;;;;;;;4.57;1.73;;;12.60;31.60;;;;;;5039687;28;46974;-69
2023/04/25 10:53:58;;;;;;;9.50;4.23;;;12.60;31.70;;;;;;5037880;28;45899;-68
2023/04/25 10:56:39;;;;;;;3.40;1.90;;;12.50;31.70;;;;;;5038076;28;46338;-68
2023/04/25 10:59:16;;;;;;;4.37;1.73;;;12.50;32.10;;;;;;5039512;28;46373;-68
2023/04/25 11:01:51;;;;;;;5.33;1.87;;;11.90;33.30;;;;;;5038425;28;46479;-68
2023/04/25 11:04:35;;;;;;;3.50;1.40;;;11.30;34.90;;;;;;5039916;28;46357;-68
2023/04/25 11:07:23;;;;;;;3.47;1.67;;;10.80;36.10;;;;;;5034604;28;46477;-68
2023/04/25 11:09:49;;;;;;;3.10;1.43;;;10.30;38.70;;;;;;5039288;28;46456;-69
2023/04/25 11:12:16;;;;;;;4.90;1.63;;;9.90;40.50;;;;;;5038155;28;46437;-68
2023/04/25 11:14:41;;;;;;;3.93;1.90;;;9.50;43.50;;;;;;5037893;28;46355;-69
2023/04/25 11:17:07;;;;;;;3.50;1.40;;;9.50;43.30;;;;;;5038568;28;46437;-69
2023/04/25 11:19:33;;;;;;;3.27;1.60;;;9.50;43.10;;;;;;5037981;28;46468;-69
2023/04/25 11:22:00;;;;;;;2.97;1.67;;;9.50;43.00;;;;;;5036490;28;46277;-69
2023/04/25 11:24:30;;;;;;;3.67;1.67;;;9.50;42.70;;;;;;5038218;28;46352;-68
2023/04/25 11:26:58;;;;;;;3.07;1.33;;;9.70;42.30;;;;;;5035916;28;46348;-68
2023/04/25 11:29:26;;;;;;;3.53;1.20;;;9.90;42.00;;;;;;5037186;28;46718;-68
2023/04/25 11:31:53;;;;;;;5.40;1.80;;;10.00;40.60;;;;;;5037940;28;46623;-68
2023/04/25 11:34:19;;;;;;;2.70;1.13;;;10.40;40.10;;;;;;5038312;28;46419;-68
2023/04/25 11:36:45;;;;;;;2.77;1.10;;;10.60;39.60;;;;;;5039800;28;46680;-68
2023/04/25 11:39:11;;;;;;;1.70;1.00;;;10.70;39.30;;;;;;5037979;28;46369;-68
2023/04/25 11:41:38;;;;;;;1.90;1.00;;;10.80;39.10;;;;;;5037255;28;46653;-68
2023/04/25 11:44:04;;;;;;;1.73;1.00;;;11.00;39.40;;;;;;5038942;28;46322;-68
2023/04/25 11:46:30;;;;;;;2.70;0.87;;;11.10;39.40;;;;;;5038851;28;46470;-68
2023/04/25 11:48:56;;;;;;;3.43;0.70;;;11.40;38.90;;;;;;5038323;28;46554;-68
2023/04/25 11:51:21;;;;;;;1.87;1.00;;;11.40;38.90;;;;;;5036886;28;46256;-68
2023/04/25 11:53:47;;;;;;;2.50;0.90;;;11.50;38.80;;;;;;5036349;28;46393;-68
2023/04/25 11:56:13;;;;;;;4.20;1.30;;;11.50;38.90;;;;;;5037144;28;46448;-68
2023/04/25 11:58:56;;;;;;;2.20;0.93;;;11.50;39.00;;;;;;5032524;28;46634;-69
2023/04/25 12:01:30;;;;;;;1.73;0.80;;;11.50;39.80;;;;;;5035908;28;46377;-69
2023/04/25 12:03:56;;;;;;;2.53;0.83;;;11.30;39.60;;;;;;5038103;28;46011;-69
2023/04/25 12:06:26;;;;;;;1.70;1.00;;;11.50;39.80;;;;;;5038714;28;46504;-69
2023/04/25 12:09:03;;;;;;;2.77;1.30;;;11.10;40.70;;;;;;5037873;28;46495;-69
2023/04/25 12:11:32;;;;;;;2.10;1.33;;;10.90;41.10;;;;;;5038052;28;46473;-68
2023/04/25 12:14:03;;;;;;;2.10;1.13;;;10.90;42.90;;;;;;5037367;28;46369;-68
2023/04/25 12:16:30;;;;;;;3.17;1.23;;;11.00;43.00;;;;;;5039636;28;46452;-68
2023/04/25 12:18:57;;;;;;;2.23;1.10;;;11.30;42.10;;;;;;5037253;28;46593;-68
2023/04/25 12:21:22;;;;;;;2.90;1.10;;;11.20;41.90;;;;;;5036171;28;47122;-69
2023/04/25 12:23:48;;;;;;;1.70;0.80;;;10.90;43.00;;;;;;5037591;28;46401;-69
2023/04/25 12:26:14;;;;;;;1.80;0.90;;;10.30;44.80;;;;;;5038738;28;46705;-69
2023/04/25 12:28:39;;;;;;;2.57;1.10;;;10.10;45.20;;;;;;5035401;28;46009;-68
2023/04/25 12:31:06;;;;;;;1.60;1.00;;;10.30;45.20;;;;;;5036206;28;47094;-69
2023/04/25 12:33:34;;;;;;;2.73;1.10;;;10.40;44.40;;;;;;5035735;28;46315;-69
2023/04/25 12:36:03;;;;;;;1.83;1.00;;;10.40;43.80;;;;;;5041944;28;46431;-69
2023/04/25 12:38:31;;;;;;;2.00;1.20;;;10.40;43.70;;;;;;5038585;28;46396;-69
2023/04/25 12:40:58;;;;;;;2.17;1.30;;;10.80;43.00;;;;;;5039819;28;46321;-68
2023/04/25 12:43:23;;;;;;;1.87;1.00;;;11.20;42.20;;;;;;5038542;28;46388;-68
2023/04/25 12:45:53;;;;;;;1.60;0.90;;;11.10;41.20;;;;;;5040684;28;46385;-69
2023/04/25 12:48:20;;;;;;;1.53;0.87;;;11.30;41.20;;;;;;5038950;28;46443;-69
2023/04/25 12:50:49;;;;;;;1.73;1.00;;;11.40;40.90;;;;;;5040651;28;46286;-69